Time;durP1;ratioP1;P1;durP2;ratioP2;P2;SDS_P1;SDS_P2;PMS_P1;PMS_P2;Temp;Humidity;BMP_temperature;BMP_pressure;BME280_temperature;BME280_humidity;BME280_pressure;Samples;Min_cycle;Max_cycle;Signal;HPM_P1;HPM_P2
2021/08/26 00:00:12;;;;;;;10.00;6.35;;;;;;;7.49;100.00;93081.63;2089300;28;20470;-84
2021/08/26 00:06:16;;;;;;;7.65;5.35;;;;;;;7.44;100.00;93081.31;2113703;28;20024;-86
2021/08/26 00:07:18;;;;;;;8.43;5.93;;;;;;;7.46;100.00;93073.69;2097129;28;20538;-85
2021/08/26 00:08:21;;;;;;;7.82;6.25;;;;;;;7.40;100.00;93081.34;2105278;28;20103;-86
2021/08/26 00:09:22;;;;;;;11.55;6.15;;;;;;;7.49;100.00;93078.22;2100165;28;20029;-85
2021/08/26 00:10:24;;;;;;;8.93;5.90;;;;;;;7.48;100.00;93076.72;2098238;28;20024;-88
2021/08/26 00:11:25;;;;;;;10.25;6.47;;;;;;;7.44;100.00;93068.75;2099821;28;20029;-87
2021/08/26 00:12:26;;;;;;;10.30;6.22;;;;;;;7.46;100.00;93071.78;2099906;28;20063;-87
2021/08/26 00:13:27;;;;;;;8.45;6.63;;;;;;;7.37;100.00;93068.81;2093617;28;20147;-87
2021/08/26 00:14:28;;;;;;;9.20;6.07;;;;;;;7.44;100.00;93065.34;2095255;28;20031;-85
2021/08/26 00:15:29;;;;;;;8.93;6.57;;;;;;;7.31;100.00;93057.13;2090189;28;20021;-87
2021/08/26 00:16:30;;;;;;;11.60;6.38;;;;;;;7.25;100.00;93067.44;2099809;28;20036;-88
2021/08/26 00:17:30;;;;;;;9.30;5.80;;;;;;;7.32;100.00;93071.91;2097069;28;20466;-88
2021/08/26 00:18:32;;;;;;;7.63;6.25;;;;;;;7.43;100.00;93056.63;2093430;28;20028;-91
2021/08/26 00:19:33;;;;;;;7.68;6.05;;;;;;;7.45;100.00;93064.19;2086902;28;20029;-86
2021/08/26 00:20:34;;;;;;;10.40;6.63;;;;;;;7.48;100.00;93058.84;2097013;28;20062;-85
2021/08/26 00:21:35;;;;;;;8.73;6.43;;;;;;;7.49;100.00;93060.34;2097036;28;20031;-87
2021/08/26 00:22:36;;;;;;;8.10;6.18;;;;;;;7.48;100.00;93061.50;2091603;28;20052;-88
2021/08/26 00:23:37;;;;;;;8.45;6.30;;;;;;;7.53;100.00;93057.66;2088529;28;20553;-87
2021/08/26 00:24:38;;;;;;;10.00;5.80;;;;;;;7.57;100.00;93053.78;2096589;28;20032;-84
2021/08/26 00:25:39;;;;;;;8.80;6.35;;;;;;;7.52;100.00;93051.56;2096220;28;20020;-87
2021/08/26 00:26:40;;;;;;;9.10;6.80;;;;;;;7.55;100.00;93047.34;2088676;28;20024;-87
2021/08/26 00:27:41;;;;;;;8.48;5.85;;;;;;;7.52;100.00;93054.25;2097087;28;20028;-86
2021/08/26 00:28:42;;;;;;;10.48;6.65;;;;;;;7.51;100.00;93055.41;2104881;28;20084;-87
2021/08/26 00:29:43;;;;;;;8.82;6.18;;;;;;;7.50;100.00;93051.22;2097100;28;20051;-86
2021/08/26 00:30:43;;;;;;;10.02;6.30;;;;;;;7.56;100.00;93057.63;2086855;28;20503;-88
2021/08/26 00:31:44;;;;;;;10.35;7.07;;;;;;;7.58;100.00;93038.59;2087602;28;20033;-87
2021/08/26 00:32:45;;;;;;;11.48;6.65;;;;;;;7.53;100.00;93041.69;2096925;28;20028;-87
2021/08/26 00:33:46;;;;;;;10.82;6.40;;;;;;;7.48;100.00;93048.22;2105190;28;20524;-87
2021/08/26 00:34:47;;;;;;;9.82;6.88;;;;;;;7.51;100.00;93039.44;2098884;28;20489;-87
2021/08/26 00:35:49;;;;;;;12.63;7.05;;;;;;;7.55;100.00;93040.16;2091304;28;20032;-87
2021/08/26 00:36:49;;;;;;;7.72;6.35;;;;;;;7.53;100.00;93041.69;2090131;28;20068;-86
2021/08/26 00:37:50;;;;;;;9.48;6.60;;;;;;;7.56;100.00;93031.03;2090680;28;20397;-88
2021/08/26 00:38:51;;;;;;;9.60;6.38;;;;;;;7.55;100.00;93034.84;2088048;28;20021;-87
2021/08/26 00:39:52;;;;;;;9.48;6.78;;;;;;;7.56;100.00;93033.69;2088770;28;20029;-85
2021/08/26 00:40:59;;;;;;;10.30;6.20;;;;;;;7.52;100.00;93027.66;2092902;28;20021;-86
2021/08/26 00:42:00;;;;;;;8.18;6.10;;;;;;;7.54;100.00;93022.66;2096011;28;20028;-86
2021/08/26 00:43:01;;;;;;;8.43;6.50;;;;;;;7.57;100.00;93021.88;2096834;28;20090;-87
2021/08/26 00:44:03;;;;;;;13.38;6.78;;;;;;;7.59;100.00;93026.78;2096829;28;20028;-87
2021/08/26 00:45:04;;;;;;;13.32;7.30;;;;;;;7.67;100.00;93014.91;2096961;28;20039;-87
2021/08/26 00:46:05;;;;;;;12.45;6.47;;;;;;;7.72;100.00;93011.81;2088838;28;20029;-85
2021/08/26 00:47:09;;;;;;;9.18;6.53;;;;;;;7.70;100.00;93011.47;2096512;28;20021;-90
2021/08/26 00:48:10;;;;;;;11.35;6.55;;;;;;;7.78;100.00;93015.53;2104797;28;20093;-86
2021/08/26 00:49:12;;;;;;;9.90;6.60;;;;;;;7.83;100.00;93015.09;2113317;28;20067;-87
2021/08/26 00:50:15;;;;;;;9.48;6.63;;;;;;;7.91;100.00;93012.34;2097165;28;20052;-88
2021/08/26 00:51:16;;;;;;;10.38;7.22;;;;;;;7.90;100.00;93016.16;2096168;28;20059;-87
2021/08/26 00:52:17;;;;;;;7.70;6.00;;;;;;;7.85;100.00;93017.34;2092865;28;20040;-86
2021/08/26 00:53:20;;;;;;;11.93;6.72;;;;;;;7.80;100.00;93015.13;2087871;28;20133;-87
2021/08/26 00:54:21;;;;;;;9.60;6.65;;;;;;;7.80;100.00;93017.81;2088631;28;20036;-89
2021/08/26 00:55:22;;;;;;;11.30;6.63;;;;;;;7.77;100.00;93026.56;2088538;28;20028;-87
2021/08/26 00:56:23;;;;;;;9.25;6.78;;;;;;;7.79;100.00;93016.31;2089035;28;20049;-86
2021/08/26 00:57:25;;;;;;;12.45;6.20;;;;;;;7.73;100.00;93015.25;2087454;28;20032;-87
2021/08/26 00:58:29;;;;;;;11.35;6.57;;;;;;;7.61;100.00;93016.53;2103495;28;20059;-86
2021/08/26 00:59:32;;;;;;;10.15;6.85;;;;;;;7.62;100.00;93017.28;2096546;28;20129;-86
2021/08/26 01:00:34;;;;;;;9.65;6.70;;;;;;;7.56;100.00;93014.31;2089089;28;20048;-87
2021/08/26 01:01:38;;;;;;;10.02;6.40;;;;;;;7.55;100.00;93016.22;2097218;28;20065;-86
2021/08/26 01:03:04;;;;;;;9.57;6.88;;;;;;;7.57;100.00;93008.59;2094297;28;20481;-88
2021/08/26 01:04:23;;;;;;;10.35;6.85;;;;;;;7.51;100.00;93012.84;2102599;28;20027;-88
2021/08/26 01:05:28;;;;;;;10.73;7.00;;;;;;;7.51;100.00;93018.16;2098809;28;20036;-85
2021/08/26 01:06:55;;;;;;;10.38;6.90;;;;;;;7.40;100.00;93011.44;2089176;28;20028;-86
2021/08/26 01:08:16;;;;;;;7.65;5.97;;;;;;;7.52;100.00;93011.69;2075001;28;20037;-88
2021/08/26 01:09:21;;;;;;;9.25;6.25;;;;;;;7.47;100.00;93006.81;2104754;28;20061;-85
2021/08/26 01:10:24;;;;;;;8.57;6.20;;;;;;;7.38;100.00;93009.19;2096623;28;20123;-88
2021/08/26 01:11:26;;;;;;;10.57;7.05;;;;;;;7.35;100.00;93004.66;2097020;28;20067;-85
2021/08/26 01:12:28;;;;;;;10.48;6.35;;;;;;;7.35;100.00;93009.22;2085802;28;20151;-87
2021/08/26 01:13:35;;;;;;;10.00;6.47;;;;;;;7.30;100.00;93002.44;2090053;28;20029;-86
2021/08/26 01:14:37;;;;;;;8.75;6.88;;;;;;;7.33;100.00;93004.28;2098666;28;20046;-90
2021/08/26 01:15:38;;;;;;;10.15;6.93;;;;;;;7.38;100.00;92995.16;2092485;28;20024;-84
2021/08/26 01:16:39;;;;;;;10.57;6.60;;;;;;;7.38;100.00;92995.16;2095744;28;20016;-85
2021/08/26 01:17:44;;;;;;;7.53;5.78;;;;;;;7.39;100.00;93002.72;2086810;28;20033;-88
2021/08/26 01:18:46;;;;;;;9.73;6.50;;;;;;;7.37;100.00;92994.38;2094113;28;20032;-88
2021/08/26 01:19:48;;;;;;;11.38;6.75;;;;;;;7.36;100.00;93000.84;2094954;28;20043;-87
2021/08/26 01:20:49;;;;;;;12.02;7.03;;;;;;;7.32;100.00;93000.13;2088503;28;20379;-87
2021/08/26 01:21:50;;;;;;;11.65;6.72;;;;;;;7.38;100.00;92998.56;2087810;28;20082;-85
2021/08/26 01:22:51;;;;;;;11.45;6.70;;;;;;;7.41;100.00;93002.31;2096282;28;20016;-86
2021/08/26 01:23:58;;;;;;;10.07;6.30;;;;;;;7.40;100.00;92998.16;2096479;28;20505;-85
2021/08/26 01:25:11;;;;;;;10.98;6.57;;;;;;;7.39;100.00;92994.00;2096823;28;20029;-90
2021/08/26 01:26:21;;;;;;;10.15;6.10;;;;;;;7.31;100.00;93006.63;2098164;28;20290;-86
2021/08/26 01:27:24;;;;;;;8.60;6.75;;;;;;;7.35;100.00;92999.34;2091938;28;20029;-89
2021/08/26 01:28:26;;;;;;;10.20;6.93;;;;;;;7.34;100.00;92995.19;2094969;28;20056;-86
2021/08/26 01:29:27;;;;;;;9.73;6.32;;;;;;;7.23;100.00;92989.22;2088082;28;20032;-85
2021/08/26 01:30:32;;;;;;;11.15;6.50;;;;;;;7.18;100.00;92994.97;2088093;28;20068;-84
2021/08/26 01:31:35;;;;;;;7.97;6.53;;;;;;;7.16;100.00;92991.97;2087283;28;20029;-86
2021/08/26 01:32:36;;;;;;;8.63;6.68;;;;;;;7.18;100.00;92989.66;2088402;28;20028;-88
2021/08/26 01:33:38;;;;;;;10.18;7.10;;;;;;;7.15;100.00;92991.19;2093202;28;20550;-86
2021/08/26 01:34:39;;;;;;;11.05;6.70;;;;;;;7.16;100.00;92989.31;2093090;28;20032;-87
2021/08/26 01:35:40;;;;;;;8.38;6.20;;;;;;;7.19;100.00;92988.50;2096406;28;20520;-85
2021/08/26 01:36:41;;;;;;;12.25;6.97;;;;;;;7.27;100.00;92984.63;2091090;28;20028;-86
2021/08/26 01:37:43;;;;;;;11.30;7.40;;;;;;;7.17;100.00;92988.91;2090832;28;20024;-86
2021/08/26 01:38:46;;;;;;;9.70;6.95;;;;;;;7.15;100.00;92985.13;2094607;28;20809;-87
2021/08/26 01:39:51;;;;;;;10.77;6.72;;;;;;;7.18;100.00;92993.06;2095403;28;20074;-87
2021/08/26 01:40:52;;;;;;;9.65;6.40;;;;;;;7.15;100.00;92990.44;2096915;28;20051;-88
2021/08/26 01:41:55;;;;;;;9.60;6.88;;;;;;;7.11;100.00;92995.06;2088042;28;20025;-86
2021/08/26 01:42:56;;;;;;;10.85;6.85;;;;;;;7.13;100.00;92993.53;2095679;28;20538;-88
2021/08/26 01:43:57;;;;;;;9.95;6.43;;;;;;;7.15;100.00;92987.78;2096472;28;20260;-89
2021/08/26 01:44:58;;;;;;;8.25;6.57;;;;;;;7.15;100.00;92987.78;2093014;28;20107;-87
2021/08/26 01:45:59;;;;;;;10.57;6.80;;;;;;;7.13;100.00;92982.88;2085210;28;20032;-87
2021/08/26 01:47:09;;;;;;;9.25;6.15;;;;;;;7.06;100.00;92982.94;2094251;28;20028;-85
2021/08/26 01:48:11;;;;;;;8.48;5.80;;;;;;;7.05;100.00;92984.09;2095887;28;20039;-85
2021/08/26 01:49:12;;;;;;;9.93;6.78;;;;;;;7.05;100.00;92984.09;2096325;28;20024;-89
2021/08/26 01:50:13;;;;;;;9.90;6.65;;;;;;;6.99;100.00;92986.44;2095210;28;20465;-89
2021/08/26 01:51:14;;;;;;;10.73;6.90;;;;;;;6.93;100.00;92982.69;2104877;28;20036;-88
2021/08/26 01:52:23;;;;;;;11.82;6.60;;;;;;;6.90;100.00;92982.75;2104561;28;20028;-85
2021/08/26 01:53:23;;;;;;;11.10;6.22;;;;;;;6.94;100.00;92978.91;2095512;28;20066;-89
2021/08/26 01:54:24;;;;;;;9.55;6.85;;;;;;;6.95;100.00;92985.72;2085981;28;20492;-89
2021/08/26 01:55:25;;;;;;;7.75;5.78;;;;;;;7.00;100.00;92982.63;2096233;28;20028;-85
2021/08/26 01:56:26;;;;;;;11.52;6.80;;;;;;;7.01;100.00;92978.06;2096167;28;20595;-84
2021/08/26 01:57:28;;;;;;;9.23;6.43;;;;;;;6.98;100.00;92979.63;2096312;28;20035;-87
2021/08/26 01:58:29;;;;;;;9.80;6.53;;;;;;;6.90;100.00;92988.81;2088371;28;20185;-86
2021/08/26 01:59:32;;;;;;;12.43;6.20;;;;;;;6.85;100.00;92980.50;2087845;28;20478;-87
2021/08/26 02:00:33;;;;;;;11.85;6.63;;;;;;;6.79;100.00;92982.84;2096689;28;20028;-87
2021/08/26 02:01:34;;;;;;;11.98;6.80;;;;;;;6.79;100.00;92980.19;2095795;28;20035;-85
2021/08/26 02:02:35;;;;;;;10.32;6.90;;;;;;;6.88;100.00;92979.72;2085088;28;20029;-87
2021/08/26 02:03:37;;;;;;;11.50;6.60;;;;;;;6.91;100.00;92982.34;2086787;28;20052;-89
2021/08/26 02:04:38;;;;;;;9.52;6.20;;;;;;;6.91;100.00;92979.69;2096487;28;20527;-88
2021/08/26 02:05:39;;;;;;;8.75;6.50;;;;;;;6.93;100.00;92976.63;2095646;28;20024;-89
2021/08/26 02:06:40;;;;;;;9.63;6.47;;;;;;;6.95;100.00;92975.09;2104426;28;20036;-89
2021/08/26 02:07:49;;;;;;;8.65;6.10;;;;;;;6.93;100.00;92971.31;2095497;28;20504;-86
2021/08/26 02:08:50;;;;;;;9.73;7.10;;;;;;;6.90;100.00;92980.09;2096254;28;20020;-86
2021/08/26 02:09:50;;;;;;;8.30;6.38;;;;;;;6.88;100.00;92977.06;2096095;28;20024;-84
2021/08/26 02:10:51;;;;;;;10.60;6.35;;;;;;;6.90;100.00;92972.88;2085891;28;20025;-84
2021/08/26 02:11:52;;;;;;;9.10;6.05;;;;;;;6.85;100.00;92980.50;2096377;28;20110;-86
2021/08/26 02:12:53;;;;;;;10.23;5.90;;;;;;;6.81;100.00;92973.34;2095658;28;20058;-88
2021/08/26 02:13:54;;;;;;;8.63;6.00;;;;;;;6.84;100.00;92965.72;2086267;28;20405;-86
2021/08/26 02:14:55;;;;;;;10.27;5.90;;;;;;;6.79;100.00;92966.91;2102367;28;20024;-85
2021/08/26 02:15:56;;;;;;;9.95;5.90;;;;;;;6.82;100.00;92968.78;2096233;28;20359;-85
2021/08/26 02:16:57;;;;;;;10.10;6.50;;;;;;;6.67;100.00;92968.19;2093766;28;20025;-85
2021/08/26 02:17:58;;;;;;;12.10;6.28;;;;;;;6.66;100.00;92966.66;2100713;28;20024;-89
2021/08/26 02:18:58;;;;;;;10.55;5.78;;;;;;;6.67;100.00;92964.75;2102679;28;20539;-85
2021/08/26 02:19:59;;;;;;;10.55;5.85;;;;;;;6.65;100.00;92964.41;2087694;28;20037;-84
2021/08/26 02:21:00;;;;;;;9.38;6.68;;;;;;;6.66;100.00;92961.34;2087876;28;20083;-86
2021/08/26 02:22:02;;;;;;;16.55;7.25;;;;;;;6.64;100.00;92958.34;2087932;28;20800;-86
2021/08/26 02:23:04;;;;;;;10.00;6.05;;;;;;;6.62;100.00;92959.88;2090947;28;20098;-85
2021/08/26 02:24:05;;;;;;;10.13;5.95;;;;;;;6.69;100.00;92959.81;2087822;28;20060;-87
2021/08/26 02:25:07;;;;;;;9.63;5.97;;;;;;;6.68;100.00;92955.66;2104347;28;20035;-87
2021/08/26 02:26:08;;;;;;;12.32;6.93;;;;;;;6.69;100.00;92957.91;2112993;28;20130;-88
2021/08/26 02:27:08;;;;;;;8.32;5.97;;;;;;;6.75;100.00;92953.66;2104647;28;20024;-86
2021/08/26 02:28:09;;;;;;;12.20;6.57;;;;;;;6.78;100.00;92958.19;2099634;28;20028;-87
2021/08/26 02:29:10;;;;;;;9.88;6.40;;;;;;;6.72;100.00;92954.47;2096695;28;20047;-86
2021/08/26 02:30:11;;;;;;;11.70;6.70;;;;;;;6.69;100.00;92959.81;2095320;28;20016;-88
2021/08/26 02:31:12;;;;;;;10.40;6.72;;;;;;;6.64;100.00;92955.69;2087888;28;20029;-85
2021/08/26 02:32:13;;;;;;;8.50;6.15;;;;;;;6.65;100.00;92964.41;2087811;28;20029;-87
2021/08/26 02:33:14;;;;;;;9.07;6.53;;;;;;;6.62;100.00;92957.22;2096464;28;20036;-88
2021/08/26 02:34:15;;;;;;;8.73;6.43;;;;;;;6.63;100.00;92956.06;2087853;28;20028;-88
2021/08/26 02:35:16;;;;;;;11.38;6.38;;;;;;;6.63;100.00;92961.38;2095577;28;20044;-90
2021/08/26 02:36:17;;;;;;;8.43;6.20;;;;;;;6.62;100.00;92954.56;2092396;28;20059;-86
2021/08/26 02:37:18;;;;;;;8.50;5.85;;;;;;;6.61;100.00;92953.06;2099168;28;20478;-90
2021/08/26 02:38:19;;;;;;;9.98;6.63;;;;;;;6.60;100.00;92951.56;2095904;28;20116;-86
2021/08/26 02:39:20;;;;;;;10.43;6.75;;;;;;;6.62;100.00;92954.56;2087853;28;20049;-86
2021/08/26 02:40:21;;;;;;;10.05;6.95;;;;;;;6.63;100.00;92956.06;2104309;28;20028;-88
2021/08/26 02:41:21;;;;;;;12.23;6.25;;;;;;;6.62;100.00;92954.56;2103992;28;20020;-85
2021/08/26 02:42:22;;;;;;;9.70;6.88;;;;;;;6.54;100.00;92951.19;2095922;28;20501;-87
2021/08/26 02:43:23;;;;;;;12.88;6.40;;;;;;;6.45;100.00;92954.34;2087715;28;20028;-89
2021/08/26 02:44:24;;;;;;;8.45;6.03;;;;;;;6.40;100.00;92954.75;2086036;28;20037;-88
2021/08/26 02:45:25;;;;;;;12.05;6.75;;;;;;;6.44;100.00;92947.50;2093985;28;20035;-84
2021/08/26 02:46:26;;;;;;;9.18;6.20;;;;;;;6.53;100.00;92950.44;2084239;28;20029;-88
2021/08/26 02:47:27;;;;;;;9.52;6.72;;;;;;;6.50;100.00;92953.91;2092799;28;20056;-89
2021/08/26 02:48:28;;;;;;;9.82;5.88;;;;;;;6.51;100.00;92952.75;2102885;28;20046;-85
2021/08/26 02:49:29;;;;;;;7.57;5.72;;;;;;;6.52;100.00;92954.25;2099101;28;20512;-87
2021/08/26 02:50:30;;;;;;;8.07;6.25;;;;;;;6.51;100.00;92949.34;2096120;28;20055;-88
2021/08/26 02:51:30;;;;;;;8.60;5.68;;;;;;;6.51;100.00;92954.66;2089623;28;20108;-89
2021/08/26 02:52:31;;;;;;;9.02;6.07;;;;;;;6.45;100.00;92951.69;2087148;28;20028;-87
2021/08/26 02:53:32;;;;;;;10.93;6.53;;;;;;;6.39;100.00;92952.50;2094489;28;20020;-85
2021/08/26 02:54:33;;;;;;;13.02;6.50;;;;;;;6.42;100.00;92959.69;2092306;28;20070;-89
2021/08/26 02:55:34;;;;;;;8.32;6.07;;;;;;;6.44;100.00;92955.47;2096132;28;20028;-88
2021/08/26 02:56:35;;;;;;;10.45;6.68;;;;;;;6.37;100.00;92952.16;2088113;28;20115;-84
2021/08/26 02:57:36;;;;;;;8.02;6.05;;;;;;;6.38;100.00;92958.94;2096046;28;20104;-85
2021/08/26 02:58:37;;;;;;;9.20;6.60;;;;;;;6.38;100.00;92951.75;2095429;28;20082;-87
2021/08/26 02:59:38;;;;;;;9.93;6.32;;;;;;;6.40;100.00;92956.66;2090765;28;20036;-86
2021/08/26 03:00:39;;;;;;;11.27;6.43;;;;;;;6.36;100.00;92953.28;2107383;28;20024;-90
2021/08/26 03:01:40;;;;;;;10.45;6.38;;;;;;;6.40;100.00;92957.41;2096799;28;20088;-85
2021/08/26 03:02:41;;;;;;;14.32;6.40;;;;;;;6.38;100.00;92949.09;2106161;28;20016;-85
2021/08/26 03:03:42;;;;;;;10.20;6.68;;;;;;;6.36;100.00;92953.28;2114207;28;20110;-85
2021/08/26 03:04:43;;;;;;;8.88;6.30;;;;;;;6.36;100.00;92954.03;2114331;28;20093;-87
2021/08/26 03:05:44;;;;;;;9.60;5.93;;;;;;;6.30;100.00;92947.63;2105639;28;20024;-88
2021/08/26 03:06:44;;;;;;;12.20;5.60;;;;;;;6.34;100.00;92945.72;2104611;28;20128;-86
2021/08/26 03:07:45;;;;;;;8.95;5.60;;;;;;;6.38;100.00;92951.00;2113044;28;20028;-87
2021/08/26 03:08:46;;;;;;;9.73;6.22;;;;;;;6.39;100.00;92953.25;2105772;28;20082;-88
2021/08/26 03:09:47;;;;;;;8.85;6.30;;;;;;;6.29;100.00;92949.53;2114088;28;20115;-85
2021/08/26 03:10:48;;;;;;;9.00;6.13;;;;;;;6.33;100.00;92954.81;2097361;28;20469;-87
2021/08/26 03:11:49;;;;;;;10.43;6.57;;;;;;;6.27;100.00;92946.50;2089547;28;20029;-89
2021/08/26 03:12:50;;;;;;;8.48;5.88;;;;;;;6.31;100.00;92955.19;2106090;28;20028;-84
2021/08/26 03:13:51;;;;;;;10.57;6.82;;;;;;;6.31;100.00;92951.78;2106193;28;20496;-86
2021/08/26 03:14:52;;;;;;;11.05;6.38;;;;;;;6.28;100.00;92955.25;2105763;28;20024;-86
2021/08/26 03:15:52;;;;;;;9.43;6.47;;;;;;;6.32;100.00;92950.63;2105364;28;20032;-89
2021/08/26 03:16:53;;;;;;;10.35;6.13;;;;;;;6.30;100.00;92956.34;2089370;28;20106;-85
2021/08/26 03:17:54;;;;;;;8.45;6.15;;;;;;;6.31;100.00;92954.44;2097430;28;20024;-86
2021/08/26 03:18:55;;;;;;;10.40;5.82;;;;;;;6.32;100.00;92953.28;2097585;28;20028;-84
2021/08/26 03:19:56;;;;;;;7.90;5.97;;;;;;;6.33;100.00;92948.75;2095941;28;20018;-87
2021/08/26 03:20:57;;;;;;;9.88;6.25;;;;;;;6.25;100.00;92953.38;2096837;28;20055;-86
2021/08/26 03:21:58;;;;;;;6.82;5.30;;;;;;;6.19;100.00;92945.09;2089264;28;20067;-88
2021/08/26 03:22:59;;;;;;;7.95;5.82;;;;;;;6.15;100.00;92944.34;2087893;28;20091;-86
2021/08/26 03:24:00;;;;;;;8.95;6.43;;;;;;;6.20;100.00;92940.53;2089440;28;20072;-88
2021/08/26 03:25:01;;;;;;;9.32;5.80;;;;;;;6.26;100.00;92950.31;2097362;28;20074;-87
2021/08/26 03:26:02;;;;;;;8.18;5.97;;;;;;;6.22;100.00;92941.63;2105806;28;20461;-88
2021/08/26 03:27:03;;;;;;;6.93;5.68;;;;;;;6.20;100.00;92946.59;2104715;28;20735;-87
2021/08/26 03:28:04;;;;;;;9.82;6.22;;;;;;;6.26;100.00;92944.25;2089574;28;20064;-87
2021/08/26 03:29:05;;;;;;;10.75;5.90;;;;;;;6.20;100.00;92940.53;2089170;28;20025;-87
2021/08/26 03:30:07;;;;;;;9.57;6.20;;;;;;;6.26;100.00;92950.31;2089179;28;20024;-87
2021/08/26 03:31:07;;;;;;;7.80;5.88;;;;;;;6.27;100.00;92949.16;2087737;28;20025;-86
2021/08/26 03:32:08;;;;;;;8.10;6.18;;;;;;;6.23;100.00;92945.03;2097179;28;20027;-87
2021/08/26 03:33:10;;;;;;;9.30;6.07;;;;;;;6.20;100.00;92945.84;2096620;28;20051;-84
2021/08/26 03:34:11;;;;;;;7.72;5.93;;;;;;;6.19;100.00;92942.44;2097601;28;20150;-87
2021/08/26 03:35:12;;;;;;;9.40;6.32;;;;;;;6.17;100.00;92939.41;2097560;28;20121;-87
2021/08/26 03:36:13;;;;;;;8.80;5.90;;;;;;;6.13;100.00;92943.97;2097177;28;20032;-87
2021/08/26 03:37:14;;;;;;;8.90;6.45;;;;;;;6.14;100.00;92936.75;2097263;28;20043;-88
2021/08/26 03:38:16;;;;;;;7.55;5.80;;;;;;;6.13;100.00;92932.59;2087064;28;20033;-87
2021/08/26 03:39:17;;;;;;;7.53;6.22;;;;;;;6.08;100.00;92927.72;2089643;28;20092;-87
2021/08/26 03:40:18;;;;;;;8.27;6.57;;;;;;;6.13;100.00;92929.97;2093963;28;20354;-84
2021/08/26 03:41:19;;;;;;;6.85;5.82;;;;;;;6.11;100.00;92925.06;2088099;28;20032;-86
2021/08/26 03:42:20;;;;;;;9.52;6.03;;;;;;;6.13;100.00;92919.34;2089055;28;20059;-86
2021/08/26 03:43:21;;;;;;;8.25;5.88;;;;;;;6.11;100.00;92921.66;2088369;28;20106;-86
2021/08/26 03:44:22;;;;;;;8.50;5.90;;;;;;;6.15;100.00;92917.06;2095111;28;20512;-87
2021/08/26 03:45:23;;;;;;;9.80;6.05;;;;;;;6.17;100.00;92915.50;2097127;28;20040;-89
2021/08/26 03:46:24;;;;;;;7.75;5.95;;;;;;;6.17;100.00;92918.16;2105391;28;20111;-88
2021/08/26 03:47:26;;;;;;;8.00;6.05;;;;;;;6.19;100.00;92925.72;2105662;28;20024;-88
2021/08/26 03:48:27;;;;;;;7.85;6.15;;;;;;;6.17;100.00;92920.81;2114083;27;20038;-88
2021/08/26 03:49:29;;;;;;;7.57;5.28;;;;;;;6.15;100.00;92919.72;2096585;28;20063;-86
2021/08/26 03:50:30;;;;;;;8.95;5.97;;;;;;;6.05;100.00;92911.44;2088341;28;20478;-86
2021/08/26 03:51:30;;;;;;;9.55;5.85;;;;;;;6.07;100.00;92920.91;2096340;28;20017;-87
2021/08/26 03:52:31;;;;;;;8.77;5.80;;;;;;;6.12;100.00;92915.19;2096341;28;20029;-88
2021/08/26 03:53:32;;;;;;;8.68;5.57;;;;;;;6.05;100.00;92922.03;2089088;28;20033;-86
2021/08/26 03:54:35;;;;;;;7.43;5.57;;;;;;;6.08;100.00;92909.91;2097157;28;20362;-85
2021/08/26 03:55:36;;;;;;;7.57;5.90;;;;;;;6.07;100.00;92911.06;2094756;28;20544;-87
2021/08/26 03:56:37;;;;;;;9.02;6.22;;;;;;;6.05;100.00;92913.31;2105543;28;20027;-84
2021/08/26 03:57:38;;;;;;;9.55;5.63;;;;;;;6.03;100.00;92910.31;2105644;28;20412;-86
2021/08/26 03:58:39;;;;;;;8.60;5.60;;;;;;;6.05;100.00;92903.47;2088912;28;20017;-85
2021/08/26 03:59:40;;;;;;;7.80;5.95;;;;;;;5.98;100.00;92908.84;2088940;28;20032;-85
2021/08/26 04:00:41;;;;;;;7.13;5.43;;;;;;;6.05;100.00;92903.47;2091121;28;20039;-87
2021/08/26 04:01:42;;;;;;;7.90;5.60;;;;;;;6.08;100.00;92901.94;2095518;28;20084;-87
2021/08/26 04:02:43;;;;;;;10.63;6.38;;;;;;;6.08;100.00;92895.88;2095819;28;20531;-88
2021/08/26 04:03:44;;;;;;;9.18;5.75;;;;;;;6.06;100.00;92898.94;2089073;28;21467;-86
2021/08/26 04:04:45;;;;;;;8.45;5.68;;;;;;;6.04;100.00;92901.22;2097020;28;20552;-85
2021/08/26 04:05:45;;;;;;;8.07;5.95;;;;;;;6.04;100.00;92894.00;2097254;28;20029;-86
2021/08/26 04:06:46;;;;;;;8.48;5.43;;;;;;;6.00;100.00;92901.25;2104640;28;20056;-87
2021/08/26 04:07:47;;;;;;;7.65;5.50;;;;;;;5.96;100.00;92895.22;2096905;28;20095;-87
2021/08/26 04:08:48;;;;;;;8.40;5.32;;;;;;;5.97;100.00;92891.44;2089901;28;20024;-89
2021/08/26 04:09:49;;;;;;;6.25;5.25;;;;;;;5.94;100.00;92897.50;2091626;28;20072;-88
2021/08/26 04:10:50;;;;;;;7.90;5.78;;;;;;;5.94;100.00;92889.56;2090200;28;20028;-85
2021/08/26 04:11:51;;;;;;;7.50;6.07;;;;;;;5.94;100.00;92888.81;2088481;28;20033;-89
2021/08/26 04:12:52;;;;;;;5.88;4.97;;;;;;;5.87;100.00;92884.25;2088792;28;20032;-88
2021/08/26 04:13:53;;;;;;;9.38;6.22;;;;;;;5.89;100.00;92883.88;2089040;28;20063;-88
2021/08/26 04:14:54;;;;;;;6.70;5.50;;;;;;;5.94;100.00;92892.19;2084816;28;20084;-85
2021/08/26 04:15:55;;;;;;;10.57;6.20;;;;;;;5.97;100.00;92890.66;2092289;28;20027;-85
2021/08/26 04:16:56;;;;;;;9.13;5.13;;;;;;;5.98;100.00;92894.84;2105406;28;20032;-87
2021/08/26 04:17:56;;;;;;;6.60;5.97;;;;;;;6.00;100.00;92885.31;2091615;28;20031;-87
2021/08/26 04:18:57;;;;;;;6.70;5.47;;;;;;;5.95;100.00;92895.59;2097213;28;20020;-86
2021/08/26 04:19:58;;;;;;;6.30;4.93;;;;;;;5.97;100.00;92896.72;2099921;28;20031;-85
2021/08/26 04:20:59;;;;;;;12.77;5.72;;;;;;;5.97;100.00;92890.66;2095488;28;20097;-86
2021/08/26 04:22:00;;;;;;;8.05;5.70;;;;;;;5.96;100.00;92891.81;2101678;28;20035;-85
2021/08/26 04:23:06;;;;;;;9.40;5.10;;;;;;;5.92;100.00;92888.41;2100149;28;20066;-87
2021/08/26 04:24:07;;;;;;;7.28;5.63;;;;;;;5.82;100.00;92890.00;2089915;28;20031;-88
2021/08/26 04:25:08;;;;;;;7.22;5.47;;;;;;;5.92;100.00;92886.53;2088837;28;20043;-83
2021/08/26 04:26:09;;;;;;;8.50;5.30;;;;;;;5.90;100.00;92894.09;2095467;28;20025;-87
2021/08/26 04:27:10;;;;;;;6.88;4.63;;;;;;;5.92;100.00;92893.72;2095656;28;20055;-85
2021/08/26 04:28:11;;;;;;;7.78;6.00;;;;;;;5.95;100.00;92896.34;2096991;28;20471;-88
2021/08/26 04:29:12;;;;;;;6.60;5.20;;;;;;;5.98;100.00;92895.59;2088295;28;20298;-88
2021/08/26 04:30:14;;;;;;;8.75;5.22;;;;;;;5.99;100.00;92897.09;2105432;28;20481;-87
2021/08/26 04:31:15;;;;;;;7.00;4.72;;;;;;;5.93;100.00;92893.34;2103571;28;20056;-88
2021/08/26 04:32:15;;;;;;;7.85;5.50;;;;;;;5.89;100.00;92899.81;2097034;28;20031;-89
2021/08/26 04:33:17;;;;;;;9.02;5.63;;;;;;;5.93;100.00;92897.91;2097041;28;20422;-87
2021/08/26 04:34:17;;;;;;;9.27;5.72;;;;;;;5.83;100.00;92899.44;2087952;28;20032;-85
2021/08/26 04:35:18;;;;;;;8.45;5.28;;;;;;;5.91;100.00;92894.84;2088279;28;20035;-89
2021/08/26 04:36:19;;;;;;;7.85;5.07;;;;;;;5.91;100.00;92898.25;2088399;28;20024;-85
2021/08/26 04:37:21;;;;;;;5.80;5.03;;;;;;;5.88;100.00;92901.69;2090804;28;20028;-87
2021/08/26 04:38:21;;;;;;;9.52;5.85;;;;;;;5.95;100.00;92900.91;2107609;28;20040;-87
2021/08/26 04:39:22;;;;;;;6.35;5.22;;;;;;;5.86;100.00;92903.97;2113732;28;20023;-87
2021/08/26 04:40:24;;;;;;;6.97;5.28;;;;;;;5.92;100.00;92902.44;2104939;28;20151;-86
2021/08/26 04:41:26;;;;;;;9.80;5.72;;;;;;;5.92;100.00;92899.03;2086674;28;20033;-85
2021/08/26 04:42:27;;;;;;;6.45;5.22;;;;;;;5.93;100.00;92903.97;2104125;28;20406;-88
2021/08/26 04:43:28;;;;;;;8.65;5.63;;;;;;;5.87;100.00;92899.44;2105264;28;20031;-88
2021/08/26 04:44:29;;;;;;;8.18;5.75;;;;;;;5.85;100.00;92899.06;2105447;28;21292;-87
2021/08/26 04:45:30;;;;;;;7.50;5.50;;;;;;;5.94;100.00;92897.50;2114246;28;20032;-88
2021/08/26 04:46:31;;;;;;;11.70;5.65;;;;;;;5.89;100.00;92900.56;2104407;28;20051;-85
2021/08/26 04:47:32;;;;;;;7.47;6.22;;;;;;;5.97;100.00;92899.38;2105039;28;20517;-88
2021/08/26 04:48:33;;;;;;;7.05;6.00;;;;;;;6.00;100.00;92901.25;2096854;28;20519;-87
2021/08/26 04:49:33;;;;;;;9.20;5.60;;;;;;;6.05;100.00;92906.13;2096767;28;20039;-85
2021/08/26 04:50:34;;;;;;;6.65;5.38;;;;;;;6.10;100.00;92904.19;2099302;28;20043;-85
2021/08/26 04:51:35;;;;;;;8.23;6.15;;;;;;;6.07;100.00;92897.03;2104365;28;20034;-87
2021/08/26 04:52:36;;;;;;;9.10;5.72;;;;;;;6.08;100.00;92898.53;2096111;28;20066;-88
2021/08/26 04:53:37;;;;;;;7.05;5.75;;;;;;;6.16;100.00;92892.78;2096837;28;20063;-85
2021/08/26 04:54:38;;;;;;;9.52;6.20;;;;;;;6.23;100.00;92899.91;2096628;28;20028;-89